createdAt,value
2022-11-15T00:01:19.111Z,100.00
2022-11-15T00:04:05.648Z,100.00
2022-11-15T00:06:51.279Z,100.00
2022-11-15T00:09:39.909Z,100.00
2022-11-15T00:12:29.613Z,100.00
2022-11-15T00:15:15.860Z,100.00
2022-11-15T00:18:01.890Z,100.00
2022-11-15T00:20:47.912Z,100.00
2022-11-15T00:23:35.361Z,100.00
2022-11-15T00:26:21.132Z,100.00
2022-11-15T00:29:07.151Z,100.00
2022-11-15T00:31:53.956Z,100.00
2022-11-15T00:34:40.017Z,100.00
2022-11-15T00:37:25.906Z,100.00
2022-11-15T00:40:14.073Z,100.00
2022-11-15T00:43:00.292Z,100.00
2022-11-15T00:45:45.964Z,100.00
2022-11-15T00:48:32.671Z,100.00
2022-11-15T00:51:18.667Z,100.00
2022-11-15T00:54:04.809Z,100.00
2022-11-15T00:56:50.606Z,100.00
2022-11-15T00:59:36.566Z,100.00
2022-11-15T01:02:22.684Z,100.00
2022-11-15T01:05:09.282Z,100.00
2022-11-15T01:07:56.647Z,100.00
2022-11-15T01:10:43.000Z,100.00
2022-11-15T01:13:34.965Z,100.00
2022-11-15T01:16:21.024Z,100.00
2022-11-15T01:19:06.858Z,100.00
2022-11-15T01:21:53.206Z,100.00
2022-11-15T01:24:39.339Z,100.00
2022-11-15T01:27:25.337Z,100.00
2022-11-15T01:30:11.564Z,100.00
2022-11-15T01:32:57.233Z,100.00
2022-11-15T01:35:43.571Z,100.00
2022-11-15T01:38:29.870Z,100.00
2022-11-15T01:41:21.631Z,100.00
2022-11-15T01:44:32.227Z,100.00
2022-11-15T01:47:30.332Z,100.00
2022-11-15T01:50:22.259Z,100.00
2022-11-15T01:53:08.910Z,100.00
2022-11-15T01:55:55.599Z,100.00
2022-11-15T01:58:44.002Z,100.00
2022-11-15T02:01:31.972Z,100.00
2022-11-15T02:04:24.281Z,100.00
2022-11-15T02:07:13.259Z,100.00
2022-11-15T02:10:10.012Z,100.00
2022-11-15T02:12:58.326Z,100.00
2022-11-15T02:16:06.470Z,100.00
2022-11-15T02:19:41.788Z,100.00
2022-11-15T02:22:52.582Z,100.00
2022-11-15T02:25:56.931Z,100.00
2022-11-15T02:29:01.058Z,100.00
2022-11-15T02:32:32.924Z,100.00
2022-11-15T02:35:28.834Z,100.00
2022-11-15T02:38:27.626Z,100.00
2022-11-15T02:41:32.319Z,100.00
2022-11-15T02:44:36.623Z,100.00
2022-11-15T02:47:23.776Z,100.00
2022-11-15T02:50:13.505Z,100.00
2022-11-15T02:52:59.921Z,100.00
2022-11-15T02:55:49.965Z,100.00
2022-11-15T02:58:41.656Z,100.00
2022-11-15T03:01:50.275Z,100.00
2022-11-15T03:05:00.111Z,100.00
2022-11-15T03:08:18.941Z,100.00
2022-11-15T03:11:10.690Z,100.00
2022-11-15T03:14:18.307Z,100.00
2022-11-15T03:17:13.943Z,100.00
2022-11-15T03:20:02.955Z,100.00
2022-11-15T03:22:50.736Z,100.00
2022-11-15T03:25:42.289Z,100.00
2022-11-15T03:29:01.510Z,100.00
2022-11-15T03:31:54.084Z,100.00
2022-11-15T03:34:51.227Z,100.00
2022-11-15T03:37:55.752Z,100.00
2022-11-15T03:40:45.611Z,100.00
2022-11-15T03:43:41.891Z,100.00
2022-11-15T03:46:34.361Z,100.00
2022-11-15T03:49:35.285Z,100.00
2022-11-15T03:52:23.161Z,100.00
2022-11-15T03:55:12.508Z,100.00
2022-11-15T03:58:01.107Z,100.00
2022-11-15T04:00:46.949Z,100.00
2022-11-15T04:03:33.226Z,100.00
2022-11-15T04:06:19.293Z,100.00
2022-11-15T04:09:05.944Z,100.00
2022-11-15T04:11:51.914Z,100.00
2022-11-15T04:14:37.481Z,100.00
2022-11-15T04:17:23.404Z,100.00
2022-11-15T04:20:31.444Z,100.00
2022-11-15T04:23:40.937Z,100.00
2022-11-15T04:26:27.074Z,100.00
2022-11-15T04:29:44.866Z,100.00
2022-11-15T04:32:31.895Z,100.00
2022-11-15T04:35:17.931Z,100.00
2022-11-15T04:38:06.244Z,100.00
2022-11-15T04:40:52.304Z,100.00
2022-11-15T04:43:37.962Z,100.00
2022-11-15T04:46:25.023Z,100.00
2022-11-15T04:49:11.151Z,100.00
2022-11-15T04:51:57.087Z,100.00
2022-11-15T04:54:44.183Z,100.00
2022-11-15T04:57:31.936Z,100.00
2022-11-15T05:00:18.490Z,100.00
2022-11-15T05:03:22.756Z,100.00
2022-11-15T05:06:08.778Z,100.00
2022-11-15T05:08:54.981Z,100.00
2022-11-15T05:11:41.626Z,100.00
2022-11-15T05:14:27.627Z,100.00
2022-11-15T05:17:13.793Z,100.00
2022-11-15T05:19:59.738Z,100.00
2022-11-15T05:22:45.589Z,100.00
2022-11-15T05:25:31.933Z,100.00
2022-11-15T05:28:17.593Z,100.00
2022-11-15T05:31:09.870Z,100.00
2022-11-15T05:33:57.772Z,100.00
2022-11-15T05:36:44.487Z,100.00
2022-11-15T05:39:30.300Z,100.00
2022-11-15T05:42:17.201Z,100.00
2022-11-15T05:45:07.149Z,100.00
2022-11-15T05:47:54.015Z,100.00
2022-11-15T05:50:43.164Z,100.00
2022-11-15T05:53:29.468Z,100.00
2022-11-15T05:56:16.107Z,100.00
2022-11-15T05:59:02.284Z,100.00
2022-11-15T06:01:48.627Z,100.00
2022-11-15T06:04:34.778Z,100.00
2022-11-15T06:07:20.973Z,100.00
2022-11-15T06:10:07.935Z,100.00
2022-11-15T06:13:05.407Z,100.00
2022-11-15T06:15:51.520Z,100.00
2022-11-15T06:18:38.056Z,100.00
2022-11-15T06:21:24.197Z,100.00
2022-11-15T06:24:36.270Z,100.00
2022-11-15T06:27:22.305Z,100.00
2022-11-15T06:30:15.517Z,100.00
2022-11-15T06:33:17.379Z,100.00
2022-11-15T06:36:14.552Z,100.00
2022-11-15T06:39:04.569Z,100.00
2022-11-15T06:41:55.896Z,100.00
2022-11-15T06:44:42.107Z,100.00
2022-11-15T06:47:30.232Z,100.00
2022-11-15T06:50:16.524Z,100.00
2022-11-15T06:53:25.178Z,100.00
2022-11-15T06:56:11.451Z,100.00
2022-11-15T06:58:57.304Z,100.00
2022-11-15T07:01:43.820Z,100.00
2022-11-15T07:04:29.785Z,100.00
2022-11-15T07:07:15.882Z,100.00
2022-11-15T07:10:02.158Z,100.00
2022-11-15T07:12:50.801Z,100.00
2022-11-15T07:15:36.462Z,100.00
2022-11-15T07:18:22.614Z,100.00
2022-11-15T07:21:11.062Z,100.00
2022-11-15T07:23:57.015Z,100.00
2022-11-15T07:26:42.688Z,100.00
2022-11-15T07:29:28.982Z,100.00
2022-11-15T07:32:14.584Z,100.00
2022-11-15T07:35:00.725Z,100.00
2022-11-15T07:37:57.952Z,100.00
2022-11-15T07:40:48.077Z,100.00
2022-11-15T07:43:35.240Z,100.00
2022-11-15T07:46:21.374Z,100.00
2022-11-15T07:49:07.412Z,100.00
2022-11-15T07:51:53.348Z,100.00
2022-11-15T07:54:39.333Z,100.00
2022-11-15T07:57:25.477Z,100.00
2022-11-15T08:00:11.746Z,100.00
2022-11-15T08:03:10.032Z,100.00
2022-11-15T08:05:56.223Z,100.00
2022-11-15T08:08:42.248Z,100.00
2022-11-15T08:11:41.830Z,100.00
2022-11-15T08:14:58.888Z,100.00
2022-11-15T08:18:25.644Z,100.00
2022-11-15T08:21:53.915Z,100.00
2022-11-15T08:29:00.606Z,100.00
2022-11-15T08:31:46.783Z,100.00
2022-11-15T08:34:32.510Z,100.00
2022-11-15T08:37:18.159Z,100.00
2022-11-15T08:40:05.330Z,100.00
2022-11-15T08:42:51.134Z,100.00
2022-11-15T08:45:37.224Z,100.00
2022-11-15T08:48:23.138Z,100.00
2022-11-15T08:51:09.284Z,100.00
2022-11-15T08:53:55.117Z,100.00
2022-11-15T08:56:41.218Z,100.00
2022-11-15T09:02:52.689Z,100.00
2022-11-15T09:05:39.196Z,100.00
2022-11-15T09:08:46.634Z,100.00
2022-11-15T09:11:31.889Z,100.00
2022-11-15T09:14:17.981Z,100.00
2022-11-15T09:17:04.379Z,100.00
2022-11-15T09:19:50.291Z,100.00
2022-11-15T09:22:37.722Z,100.00
2022-11-15T09:25:23.942Z,100.00
2022-11-15T09:28:10.003Z,100.00
2022-11-15T09:31:05.110Z,100.00
2022-11-15T09:33:51.292Z,100.00
2022-11-15T09:36:37.575Z,100.00
2022-11-15T09:39:23.441Z,100.00
2022-11-15T09:42:23.599Z,100.00
2022-11-15T09:45:34.683Z,100.00
2022-11-15T09:48:45.760Z,100.00
2022-11-15T09:51:48.020Z,100.00
2022-11-15T09:54:52.806Z,100.00
2022-11-15T09:57:50.901Z,100.00
2022-11-15T10:00:47.107Z,100.00
2022-11-15T10:03:15.635Z,100.00
2022-11-15T10:05:48.584Z,100.00
2022-11-15T10:08:25.024Z,100.00
2022-11-15T10:11:30.627Z,100.00
2022-11-15T10:13:50.594Z,100.00
2022-11-15T10:16:27.085Z,100.00
2022-11-15T10:19:01.655Z,100.00
2022-11-15T10:21:46.966Z,100.00
2022-11-15T10:24:25.102Z,100.00
2022-11-15T10:26:52.574Z,100.00
2022-11-15T10:29:26.986Z,100.00
2022-11-15T10:31:55.002Z,100.00
2022-11-15T10:34:25.218Z,100.00
2022-11-15T10:36:57.339Z,100.00
2022-11-15T10:39:25.498Z,100.00
2022-11-15T10:41:53.410Z,100.00
2022-11-15T10:44:30.606Z,100.00
2022-11-15T10:46:57.964Z,100.00
2022-11-15T10:49:29.878Z,100.00
2022-11-15T10:52:26.964Z,100.00
2022-11-15T10:55:19.424Z,100.00
2022-11-15T10:57:56.170Z,100.00
2022-11-15T11:00:23.471Z,100.00
2022-11-15T11:02:59.282Z,100.00
2022-11-15T11:05:41.364Z,100.00
2022-11-15T11:08:16.525Z,100.00
2022-11-15T11:11:04.167Z,100.00
2022-11-15T11:13:31.720Z,100.00
2022-11-15T11:16:39.166Z,100.00
2022-11-15T11:19:39.326Z,100.00
2022-11-15T11:22:25.011Z,100.00
2022-11-15T11:25:07.365Z,100.00
2022-11-15T11:28:06.957Z,100.00
2022-11-15T11:30:50.799Z,100.00
2022-11-15T11:33:21.427Z,100.00
2022-11-15T11:36:03.366Z,100.00
2022-11-15T11:38:34.052Z,100.00
2022-11-15T11:41:26.783Z,100.00
2022-11-15T11:44:44.417Z,100.00
2022-11-15T11:48:02.419Z,100.00
2022-11-15T11:50:30.230Z,100.00
2022-11-15T11:53:15.592Z,100.00
2022-11-15T11:55:47.279Z,100.00
2022-11-15T11:58:37.021Z,100.00
2022-11-15T12:01:23.757Z,100.00
2022-11-15T12:03:59.509Z,100.00
2022-11-15T12:06:57.980Z,100.00
2022-11-15T12:09:35.198Z,100.00
2022-11-15T12:12:20.748Z,100.00
2022-11-15T12:15:26.311Z,100.00
2022-11-15T12:17:56.618Z,100.00
2022-11-15T12:20:35.261Z,100.00
2022-11-15T12:23:22.238Z,100.00
2022-11-15T12:26:05.625Z,100.00
2022-11-15T12:29:08.034Z,100.00
2022-11-15T12:31:36.339Z,100.00
2022-11-15T12:34:18.663Z,100.00
2022-11-15T12:36:46.633Z,100.00
2022-11-15T12:39:16.036Z,100.00
2022-11-15T12:41:58.883Z,100.00
2022-11-15T12:44:32.617Z,100.00
2022-11-15T12:47:04.417Z,100.00
2022-11-15T12:49:31.923Z,100.00
2022-11-15T12:51:59.630Z,100.00
2022-11-15T12:54:29.652Z,100.00
2022-11-15T12:57:09.789Z,100.00
2022-11-15T12:59:59.407Z,100.00
2022-11-15T13:02:39.414Z,100.00
2022-11-15T13:05:23.443Z,100.00
2022-11-15T13:07:50.978Z,100.00
2022-11-15T13:10:18.335Z,100.00
2022-11-15T13:12:45.644Z,100.00
2022-11-15T13:15:13.398Z,100.00
2022-11-15T13:18:20.940Z,100.00
2022-11-15T13:20:48.495Z,100.00
2022-11-15T13:23:17.901Z,100.00
2022-11-15T13:26:06.801Z,100.00
2022-11-15T13:28:45.491Z,100.00
2022-11-15T13:31:15.976Z,100.00
2022-11-15T13:33:45.305Z,100.00
2022-11-15T13:36:22.671Z,100.00
2022-11-15T13:39:13.580Z,100.00
2022-11-15T13:41:52.433Z,100.00
2022-11-15T13:44:25.786Z,100.00
2022-11-15T13:47:14.712Z,100.00
2022-11-15T13:49:42.738Z,100.00
2022-11-15T13:52:15.637Z,100.00
2022-11-15T13:55:00.103Z,100.00
2022-11-15T13:57:50.456Z,100.00
2022-11-15T14:00:30.115Z,100.00
2022-11-15T14:02:58.625Z,100.00
2022-11-15T14:05:26.597Z,100.00
2022-11-15T14:08:24.097Z,100.00
2022-11-15T14:11:27.614Z,100.00
2022-11-15T14:14:10.497Z,100.00
2022-11-15T14:16:42.590Z,100.00
2022-11-15T14:19:22.233Z,100.00
2022-11-15T14:22:09.425Z,100.00
2022-11-15T14:24:38.266Z,100.00
2022-11-15T14:27:27.394Z,100.00
2022-11-15T14:29:55.526Z,100.00
2022-11-15T14:32:25.753Z,100.00
2022-11-15T14:35:01.856Z,100.00
2022-11-15T14:37:35.952Z,100.00
2022-11-15T14:40:06.732Z,100.00
2022-11-15T14:42:34.082Z,100.00
2022-11-15T14:45:01.567Z,100.00
2022-11-15T14:47:30.939Z,100.00
2022-11-15T14:49:58.354Z,100.00
2022-11-15T14:52:32.729Z,100.00
2022-11-15T14:55:02.506Z,100.00
2022-11-15T14:57:31.802Z,100.00
2022-11-15T14:59:59.181Z,100.00
2022-11-15T15:02:40.467Z,100.00
2022-11-15T15:05:34.596Z,100.00
2022-11-15T15:08:02.665Z,100.00
2022-11-15T15:10:42.495Z,100.00
2022-11-15T15:13:24.369Z,100.00
2022-11-15T15:15:53.140Z,100.00
2022-11-15T15:18:21.386Z,100.00
2022-11-15T15:20:59.166Z,100.00
2022-11-15T15:23:30.352Z,100.00
2022-11-15T15:25:58.880Z,100.00
2022-11-15T15:28:30.003Z,100.00
2022-11-15T15:31:01.550Z,100.00
2022-11-15T15:33:28.994Z,100.00
2022-11-15T15:35:56.429Z,100.00
2022-11-15T15:38:24.039Z,100.00
2022-11-15T15:40:51.947Z,100.00
2022-11-15T15:43:19.710Z,100.00
2022-11-15T15:45:47.907Z,100.00
2022-11-15T15:48:17.839Z,100.00
2022-11-15T15:50:46.369Z,100.00
2022-11-15T15:53:14.478Z,100.00
2022-11-15T15:55:42.026Z,100.00
2022-11-15T15:58:09.644Z,100.00
2022-11-15T16:00:40.280Z,100.00
2022-11-15T16:03:07.689Z,100.00
2022-11-15T16:05:35.278Z,100.00
2022-11-15T16:08:02.911Z,100.00
2022-11-15T16:10:32.900Z,100.00
2022-11-15T16:13:00.513Z,100.00
2022-11-15T16:15:31.059Z,100.00
2022-11-15T16:18:00.631Z,100.00
2022-11-15T16:20:35.249Z,100.00
2022-11-15T16:23:08.977Z,100.00
2022-11-15T16:25:40.387Z,100.00
2022-11-15T16:28:20.765Z,100.00
2022-11-15T16:30:53.907Z,100.00
2022-11-15T16:33:27.092Z,100.00
2022-11-15T16:35:54.567Z,100.00
2022-11-15T16:38:22.190Z,100.00
2022-11-15T16:40:49.734Z,100.00
2022-11-15T16:43:17.383Z,100.00
2022-11-15T16:45:45.155Z,100.00
2022-11-15T16:48:26.281Z,100.00
2022-11-15T16:50:58.191Z,100.00
2022-11-15T16:53:26.923Z,100.00
2022-11-15T16:55:56.158Z,100.00
2022-11-15T16:58:25.416Z,100.00
2022-11-15T17:00:54.716Z,100.00
2022-11-15T17:03:25.627Z,100.00
2022-11-15T17:05:53.300Z,100.00
2022-11-15T17:08:22.216Z,100.00
2022-11-15T17:10:49.778Z,100.00
2022-11-15T17:13:17.545Z,100.00
2022-11-15T17:15:44.924Z,100.00
2022-11-15T17:18:13.662Z,100.00
2022-11-15T17:20:41.805Z,100.00
2022-11-15T17:23:14.851Z,100.00
2022-11-15T17:25:42.765Z,100.00
2022-11-15T17:28:11.077Z,100.00
2022-11-15T17:30:42.301Z,100.00
2022-11-15T17:33:09.677Z,100.00
2022-11-15T17:35:37.075Z,100.00
2022-11-15T17:38:05.796Z,100.00
2022-11-15T17:40:33.540Z,100.00
2022-11-15T17:43:01.106Z,100.00
2022-11-15T17:45:28.613Z,100.00
2022-11-15T17:47:56.086Z,100.00
2022-11-15T17:50:23.628Z,100.00
2022-11-15T17:52:51.173Z,100.00
2022-11-15T17:55:18.591Z,100.00
2022-11-15T17:57:46.058Z,100.00
2022-11-15T18:00:15.196Z,100.00
2022-11-15T18:02:43.478Z,100.00
2022-11-15T18:05:11.096Z,100.00
2022-11-15T18:07:38.879Z,100.00
2022-11-15T18:10:06.777Z,100.00
2022-11-15T18:12:35.481Z,100.00
2022-11-15T18:15:03.716Z,100.00
2022-11-15T18:17:31.596Z,100.00
2022-11-15T18:19:59.336Z,100.00
2022-11-15T18:22:26.923Z,100.00
2022-11-15T18:24:54.443Z,100.00
2022-11-15T18:27:21.880Z,100.00
2022-11-15T18:29:49.292Z,100.00
2022-11-15T18:32:18.076Z,100.00
2022-11-15T18:34:45.694Z,100.00
2022-11-15T18:37:13.363Z,100.00
2022-11-15T18:39:40.877Z,100.00
2022-11-15T18:42:08.268Z,100.00
2022-11-15T18:44:35.725Z,100.00
2022-11-15T18:47:03.131Z,100.00
2022-11-15T18:49:30.574Z,100.00
2022-11-15T18:51:58.139Z,100.00
2022-11-15T18:54:30.579Z,100.00
2022-11-15T18:56:59.124Z,100.00
2022-11-15T18:59:28.047Z,100.00
2022-11-15T19:01:58.048Z,100.00
2022-11-15T19:04:25.744Z,100.00
2022-11-15T19:06:53.812Z,100.00
2022-11-15T19:09:21.568Z,100.00
2022-11-15T19:11:54.642Z,100.00
2022-11-15T19:14:24.482Z,100.00
2022-11-15T19:16:53.167Z,100.00
2022-11-15T19:19:23.340Z,100.00
2022-11-15T19:21:51.402Z,100.00
2022-11-15T19:24:18.839Z,100.00
2022-11-15T19:26:47.377Z,100.00
2022-11-15T19:29:15.559Z,100.00
2022-11-15T19:31:43.357Z,100.00
2022-11-15T19:34:13.504Z,100.00
2022-11-15T19:36:43.476Z,100.00
2022-11-15T19:39:13.445Z,100.00
2022-11-15T19:41:43.035Z,100.00
2022-11-15T19:44:11.759Z,100.00
2022-11-15T19:46:40.077Z,100.00
2022-11-15T19:49:11.680Z,100.00
2022-11-15T19:51:41.867Z,100.00
2022-11-15T19:54:12.246Z,100.00
2022-11-15T19:56:40.358Z,100.00
2022-11-15T19:59:11.881Z,100.00
2022-11-15T20:01:40.148Z,100.00
2022-11-15T20:04:10.354Z,100.00
2022-11-15T20:06:41.116Z,100.00
2022-11-15T20:09:12.733Z,99.98
2022-11-15T20:11:41.589Z,99.67
2022-11-15T20:14:11.109Z,100.00
2022-11-15T20:16:39.416Z,100.00
2022-11-15T20:19:09.145Z,100.00
2022-11-15T20:21:36.681Z,100.00
2022-11-15T20:24:05.158Z,100.00
2022-11-15T20:26:32.975Z,100.00
2022-11-15T20:29:02.346Z,100.00
2022-11-15T20:31:30.891Z,100.00
2022-11-15T20:33:58.655Z,100.00
2022-11-15T20:36:26.323Z,100.00
2022-11-15T20:38:58.368Z,100.00
2022-11-15T20:41:26.797Z,100.00
2022-11-15T20:43:54.266Z,100.00
2022-11-15T20:46:21.816Z,100.00
2022-11-15T20:48:49.226Z,100.00
2022-11-15T20:51:18.753Z,100.00
2022-11-15T20:53:47.793Z,100.00
2022-11-15T20:56:18.335Z,100.00
2022-11-15T20:58:47.225Z,99.91
2022-11-15T21:01:16.443Z,99.04
2022-11-15T21:03:44.223Z,98.30
2022-11-15T21:06:12.199Z,97.95
2022-11-15T21:08:57.988Z,97.08
2022-11-15T21:11:44.113Z,97.05
2022-11-15T21:14:11.625Z,97.39
2022-11-15T21:16:39.248Z,96.63
2022-11-15T21:19:07.373Z,96.81
2022-11-15T21:21:36.744Z,96.39
2022-11-15T21:24:06.534Z,95.84
2022-11-15T21:26:35.073Z,95.58
2022-11-15T21:29:03.173Z,95.19
2022-11-15T21:31:32.244Z,94.31
2022-11-15T21:34:04.266Z,93.41
2022-11-15T21:36:34.376Z,93.16
2022-11-15T21:39:02.136Z,92.71
2022-11-15T21:41:29.669Z,92.38
2022-11-15T21:44:01.201Z,92.60
2022-11-15T21:46:29.945Z,93.40
2022-11-15T21:48:58.439Z,92.82
2022-11-15T21:51:25.924Z,92.98
2022-11-15T21:53:56.707Z,92.77
2022-11-15T21:56:25.966Z,91.97
2022-11-15T21:58:54.494Z,90.92
2022-11-15T22:01:44.321Z,90.24
2022-11-15T22:04:12.205Z,89.53
2022-11-15T22:06:39.808Z,89.40
2022-11-15T22:09:07.721Z,88.55
2022-11-15T22:11:35.713Z,88.96
2022-11-15T22:14:03.229Z,88.94
2022-11-15T22:16:31.374Z,90.12
2022-11-15T22:18:59.011Z,90.87
2022-11-15T22:21:26.654Z,91.44
2022-11-15T22:23:54.131Z,92.04
2022-11-15T22:26:23.792Z,92.02
2022-11-15T22:28:52.217Z,91.64
2022-11-15T22:31:19.687Z,91.80
2022-11-15T22:33:47.281Z,92.32
2022-11-15T22:36:15.115Z,91.86
2022-11-15T22:38:42.805Z,92.20
2022-11-15T22:41:10.320Z,92.15
2022-11-15T22:43:38.113Z,91.47
2022-11-15T22:46:06.306Z,91.74
2022-11-15T22:48:36.659Z,91.57
2022-11-15T22:51:05.180Z,92.37
2022-11-15T22:53:33.383Z,92.65
2022-11-15T22:56:03.301Z,93.26
2022-11-15T22:58:33.218Z,94.42
2022-11-15T23:01:05.905Z,95.01
2022-11-15T23:03:34.733Z,95.61
2022-11-15T23:06:07.351Z,95.74
2022-11-15T23:08:35.543Z,96.19
2022-11-15T23:11:23.240Z,96.52
2022-11-15T23:13:52.325Z,96.89
2022-11-15T23:16:24.095Z,97.66
2022-11-15T23:18:59.225Z,97.95
2022-11-15T23:21:46.472Z,98.46
2022-11-15T23:24:15.274Z,99.32
2022-11-15T23:26:43.933Z,99.62
2022-11-15T23:29:13.869Z,99.81
2022-11-15T23:32:02.434Z,100.00
2022-11-15T23:34:31.959Z,100.00
2022-11-15T23:37:00.186Z,100.00
2022-11-15T23:39:28.184Z,100.00
2022-11-15T23:42:00.325Z,100.00
2022-11-15T23:44:29.607Z,100.00
2022-11-15T23:46:57.483Z,100.00
2022-11-15T23:49:24.955Z,100.00
2022-11-15T23:51:52.463Z,100.00
2022-11-15T23:54:19.999Z,100.00
2022-11-15T23:56:47.408Z,100.00
2022-11-15T23:59:14.904Z,100.00
